Time;durP1;ratioP1;P1;durP2;ratioP2;P2;SDS_P1;SDS_P2;PMS_P1;PMS_P2;Temp;Humidity;BMP_temperature;BMP_pressure;BME280_temperature;BME280_humidity;BME280_pressure;Samples;Min_cycle;Max_cycle;Signal;HPM_P1;HPM_P2
2023/01/08 00:00:51;;;;;;;6.95;4.25;;;0.60;99.90;;;;;;4988834;28;20030;-74
2023/01/08 00:03:17;;;;;;;5.70;4.22;;;0.70;99.90;;;;;;5003817;28;20069;-74
2023/01/08 00:05:43;;;;;;;9.32;4.85;;;1.50;99.90;;;;;;4989220;28;20081;-74
2023/01/08 00:08:09;;;;;;;6.93;4.47;;;;;;;;;;4988929;28;20033;-74
2023/01/08 00:10:36;;;;;;;8.35;4.80;;;;;;;;;;4989614;28;20023;-75
2023/01/08 00:13:02;;;;;;;9.80;4.55;;;;;;;;;;4989041;28;20033;-74
2023/01/08 00:15:29;;;;;;;9.90;5.20;;;;;;;;;;4989191;28;20030;-74
2023/01/08 00:17:55;;;;;;;9.27;4.13;;;;;;;;;;4988536;28;20479;-74
2023/01/08 00:20:21;;;;;;;7.32;4.53;;;1.20;99.90;;;;;;4989097;28;20038;-75
2023/01/08 00:22:51;;;;;;;5.68;4.32;;;1.30;99.90;;;;;;4988910;28;20530;-74
2023/01/08 00:25:17;;;;;;;5.57;4.53;;;;;;;;;;4988860;28;20146;-74
2023/01/08 00:27:44;;;;;;;6.10;3.97;;;1.30;99.90;;;;;;4980109;28;20015;-75
2023/01/08 00:30:10;;;;;;;6.40;3.60;;;1.10;99.90;;;;;;4969223;28;20034;-75
2023/01/08 00:32:35;;;;;;;6.25;4.00;;;1.10;99.90;;;;;;4968543;28;20073;-75
2023/01/08 00:35:01;;;;;;;6.03;3.90;;;1.20;99.90;;;;;;4968989;28;20027;-77
2023/01/08 00:37:28;;;;;;;7.18;3.55;;;;;;;;;;4968773;28;20038;-74
2023/01/08 00:39:54;;;;;;;11.77;5.57;;;1.20;99.90;;;;;;4968088;28;20034;-75
2023/01/08 00:42:20;;;;;;;6.07;4.63;;;1.20;99.90;;;;;;4968981;28;20027;-75
2023/01/08 00:44:46;;;;;;;6.97;4.53;;;;;;;;;;4968705;28;20034;-75
2023/01/08 00:47:12;;;;;;;6.40;4.10;;;-0.20;99.90;;;;;;4982836;28;20089;-75
2023/01/08 00:49:38;;;;;;;8.57;5.10;;;;;;;;;;4968679;28;20475;-74
2023/01/08 00:52:03;;;;;;;7.15;4.32;;;1.80;99.90;;;;;;4968784;28;20060;-75
2023/01/08 00:54:29;;;;;;;8.73;4.95;;;1.70;99.90;;;;;;4968636;28;20576;-73
2023/01/08 00:56:55;;;;;;;8.20;4.07;;;;;;;;;;4968616;28;20073;-74
2023/01/08 00:59:21;;;;;;;9.10;4.88;;;1.70;99.90;;;;;;4968024;28;20035;-75
2023/01/08 01:01:47;;;;;;;6.53;4.72;;;;;;;;;;4968754;28;20031;-75
2023/01/08 01:04:13;;;;;;;11.35;5.32;;;1.30;99.90;;;;;;4983410;28;20113;-76
2023/01/08 01:06:40;;;;;;;6.68;4.25;;;1.80;99.90;;;;;;4968250;28;20027;-74
2023/01/08 01:09:06;;;;;;;4.60;2.97;;;;;;;;;;4968588;28;20023;-75
2023/01/08 01:11:32;;;;;;;7.47;4.57;;;;;;;;;;4968462;28;20061;-74
2023/01/08 01:13:58;;;;;;;6.65;3.97;;;;;;;;;;4984489;28;20566;-75
2023/01/08 01:16:24;;;;;;;9.10;4.90;;;1.80;99.90;;;;;;4982839;28;20026;-75
2023/01/08 01:18:51;;;;;;;6.20;3.75;;;1.90;99.90;;;;;;4967835;28;20030;-75
2023/01/08 01:21:21;;;;;;;7.32;4.80;;;2.00;99.90;;;;;;4983901;28;20039;-75
2023/01/08 01:23:47;;;;;;;8.88;5.03;;;1.90;99.90;;;;;;4966939;28;20039;-74
2023/01/08 01:26:17;;;;;;;7.38;4.57;;;;;;;;;;4968520;28;20042;-74
2023/01/08 01:28:43;;;;;;;5.60;3.70;;;;;;;;;;4999402;28;20027;-74
2023/01/08 01:31:12;;;;;;;6.63;4.05;;;2.20;99.90;;;;;;4987914;28;20042;-74
2023/01/08 01:33:38;;;;;;;6.22;3.58;;;;;;;;;;4987914;28;20031;-75
2023/01/08 01:36:04;;;;;;;9.82;4.40;;;2.20;99.90;;;;;;4989154;28;20030;-75
2023/01/08 01:38:30;;;;;;;8.70;3.92;;;;;;;;;;4987313;28;20380;-74
2023/01/08 01:40:56;;;;;;;7.13;3.83;;;2.30;99.90;;;;;;4987720;28;20049;-74
2023/01/08 01:43:42;;;;;;;6.75;3.90;;;2.50;99.90;;;;;;4988822;28;20030;-74
2023/01/08 01:46:46;;;;;;;4.78;4.22;;;2.50;99.90;;;;;;4987236;28;20076;-75
2023/01/08 01:49:18;;;;;;;5.70;3.45;;;2.70;99.90;;;;;;4985684;28;20034;-74
2023/01/08 01:51:48;;;;;;;7.22;5.53;;;2.50;99.90;;;;;;4990964;28;20527;-75
2023/01/08 01:54:15;;;;;;;6.22;3.65;;;3.00;99.90;;;;;;4994489;28;20018;-75
2023/01/08 01:56:42;;;;;;;7.85;4.80;;;2.50;99.90;;;;;;4991428;28;20086;-74
2023/01/08 01:59:10;;;;;;;4.47;3.45;;;2.50;99.90;;;;;;4994629;28;20510;-74
2023/01/08 02:01:36;;;;;;;5.68;3.80;;;2.70;99.90;;;;;;4994231;28;20081;-75
2023/01/08 02:04:02;;;;;;;5.65;3.55;;;;;;;;;;4993885;28;20033;-74
2023/01/08 02:06:36;;;;;;;7.22;4.05;;;2.70;99.90;;;;;;4992288;28;20117;-75
2023/01/08 02:09:14;;;;;;;7.05;4.18;;;2.90;99.90;;;;;;5005764;28;20030;-75
2023/01/08 02:12:18;;;;;;;5.68;4.25;;;3.00;99.90;;;;;;4990875;28;20026;-74
2023/01/08 02:15:06;;;;;;;4.88;3.35;;;3.00;99.90;;;;;;4988223;28;20121;-75
2023/01/08 02:17:52;;;;;;;5.25;3.33;;;3.10;99.90;;;;;;4992879;28;20022;-75
2023/01/08 02:20:39;;;;;;;6.75;4.10;;;3.20;99.90;;;;;;4990834;28;20503;-75
2023/01/08 02:23:19;;;;;;;4.03;2.85;;;3.70;99.90;;;;;;5007857;28;20053;-75
2023/01/08 02:26:05;;;;;;;7.07;3.47;;;3.30;99.90;;;;;;4974089;28;20049;-75
2023/01/08 02:28:39;;;;;;;8.48;3.75;;;3.40;99.90;;;;;;4989878;28;20442;-75
2023/01/08 02:31:05;;;;;;;7.65;3.53;;;3.70;99.90;;;;;;4991089;28;20431;-75
2023/01/08 02:33:31;;;;;;;3.85;3.20;;;3.30;99.90;;;;;;4991732;28;20514;-73
2023/01/08 02:36:12;;;;;;;7.45;4.13;;;3.40;99.90;;;;;;4990842;28;20038;-74
2023/01/08 02:38:51;;;;;;;6.00;3.58;;;3.40;99.90;;;;;;5006583;28;20040;-73
2023/01/08 02:41:22;;;;;;;4.95;2.78;;;4.10;99.90;;;;;;4990611;28;20030;-74
2023/01/08 02:43:50;;;;;;;4.70;2.78;;;3.80;99.90;;;;;;4991063;28;20047;-74
2023/01/08 02:46:21;;;;;;;3.42;3.13;;;3.50;99.90;;;;;;4991449;28;20030;-74
2023/01/08 02:49:09;;;;;;;4.60;3.28;;;3.50;99.90;;;;;;4991202;28;20115;-74
2023/01/08 02:51:47;;;;;;;6.50;3.92;;;4.00;99.90;;;;;;4992170;28;20023;-73
2023/01/08 02:54:20;;;;;;;5.53;3.85;;;3.60;99.90;;;;;;5006744;28;20030;-73
2023/01/08 02:56:56;;;;;;;7.30;4.63;;;3.70;99.90;;;;;;4989753;28;20026;-74
2023/01/08 02:59:23;;;;;;;8.60;3.75;;;3.80;99.90;;;;;;5006401;28;20086;-74
2023/01/08 03:01:49;;;;;;;4.22;2.95;;;4.00;99.90;;;;;;4991148;28;20131;-74
2023/01/08 03:04:20;;;;;;;6.53;4.07;;;4.00;99.90;;;;;;4989449;28;20101;-73
2023/01/08 03:06:47;;;;;;;6.20;3.85;;;4.00;99.90;;;;;;4990412;28;20112;-74
2023/01/08 03:09:14;;;;;;;8.02;4.20;;;4.00;99.90;;;;;;4989173;28;20031;-73
2023/01/08 03:12:03;;;;;;;7.40;4.03;;;4.00;99.90;;;;;;4989714;28;20659;-74
2023/01/08 03:14:45;;;;;;;5.22;3.97;;;4.10;99.90;;;;;;4987929;28;20121;-75
2023/01/08 03:17:21;;;;;;;7.97;4.57;;;4.10;99.90;;;;;;4989693;28;20034;-74
2023/01/08 03:19:58;;;;;;;6.20;4.53;;;4.30;99.90;;;;;;4991148;28;20038;-74
2023/01/08 03:22:25;;;;;;;4.70;3.97;;;3.70;99.90;;;;;;4991309;28;20523;-73
2023/01/08 03:24:52;;;;;;;23.88;5.22;;;4.10;99.90;;;;;;5003710;28;20145;-74
2023/01/08 03:27:23;;;;;;;6.75;4.03;;;5.00;99.90;;;;;;4972998;28;20015;-74
2023/01/08 03:29:52;;;;;;;7.28;3.67;;;4.10;99.90;;;;;;4971425;28;20023;-74
2023/01/08 03:32:20;;;;;;;8.70;4.72;;;4.00;99.90;;;;;;4971627;28;20026;-74
2023/01/08 03:34:49;;;;;;;5.15;3.47;;;4.40;99.90;;;;;;4971867;28;20096;-74
2023/01/08 03:37:19;;;;;;;6.80;4.57;;;4.20;99.90;;;;;;4971864;28;20486;-75
2023/01/08 03:40:03;;;;;;;5.15;3.08;;;4.20;99.90;;;;;;4971586;28;20035;-74
2023/01/08 03:42:30;;;;;;;5.65;3.35;;;4.20;99.90;;;;;;4974168;28;20019;-74
2023/01/08 03:44:57;;;;;;;9.60;3.60;;;4.70;99.90;;;;;;4973209;28;20058;-74
2023/01/08 03:47:24;;;;;;;5.07;3.03;;;4.10;99.90;;;;;;4987783;28;20025;-74
2023/01/08 03:49:51;;;;;;;10.43;4.30;;;4.80;99.90;;;;;;4973044;28;20115;-74
2023/01/08 03:52:24;;;;;;;5.22;3.58;;;4.10;99.90;;;;;;4972997;28;20419;-74
2023/01/08 03:54:50;;;;;;;5.75;3.33;;;4.70;99.90;;;;;;4973108;28;20026;-73
2023/01/08 03:57:16;;;;;;;5.35;3.45;;;;;;;;;;4972774;28;20357;-74
2023/01/08 03:59:42;;;;;;;5.55;4.13;;;3.80;99.90;;;;;;4987798;28;20054;-74
2023/01/08 04:02:07;;;;;;;5.93;4.45;;;4.30;99.90;;;;;;4972904;28;20027;-74
2023/01/08 04:04:33;;;;;;;5.75;3.88;;;4.40;99.90;;;;;;4972754;28;20027;-74
2023/01/08 04:06:59;;;;;;;5.93;3.53;;;;;;;;;;4973174;28;20077;-74
2023/01/08 04:09:25;;;;;;;7.05;4.18;;;4.50;99.90;;;;;;4973736;28;20023;-74
2023/01/08 04:11:51;;;;;;;7.30;4.40;;;4.50;99.90;;;;;;4973328;28;20031;-74
2023/01/08 04:14:17;;;;;;;7.72;4.80;;;;;;;;;;4972379;28;20480;-74
2023/01/08 04:16:43;;;;;;;6.88;3.88;;;;;;;;;;4986938;28;20030;-74
2023/01/08 04:19:10;;;;;;;4.13;3.30;;;4.50;99.90;;;;;;4988017;28;20058;-74
2023/01/08 04:21:36;;;;;;;4.97;3.47;;;4.50;99.90;;;;;;4972411;28;20088;-74
2023/01/08 04:24:02;;;;;;;7.38;4.53;;;;;;;;;;4972086;28;20044;-74
2023/01/08 04:26:28;;;;;;;9.60;4.03;;;4.00;99.90;;;;;;4973276;28;20101;-74
2023/01/08 04:28:54;;;;;;;16.42;5.80;;;;;;;;;;4973504;28;20059;-74
2023/01/08 04:31:20;;;;;;;13.35;5.43;;;4.40;99.90;;;;;;4973326;28;20027;-74
2023/01/08 04:33:45;;;;;;;6.78;4.47;;;5.00;99.90;;;;;;4972744;28;20037;-74
2023/01/08 04:36:12;;;;;;;11.65;6.20;;;;;;;;;;4972876;28;20046;-74
2023/01/08 04:38:37;;;;;;;8.18;5.00;;;5.30;99.90;;;;;;4972784;28;20113;-73
2023/01/08 04:41:04;;;;;;;8.07;5.47;;;;;;;;;;4972430;28;20106;-74
2023/01/08 04:43:30;;;;;;;8.55;4.30;;;;;;;;;;4972626;28;20030;-74
2023/01/08 04:46:03;;;;;;;9.40;5.68;;;5.20;99.90;;;;;;4971881;28;20484;-74
2023/01/08 04:48:30;;;;;;;8.70;4.95;;;4.60;99.90;;;;;;4972364;28;20138;-74
2023/01/08 04:50:59;;;;;;;10.20;5.55;;;4.50;99.90;;;;;;4970548;28;20027;-73
2023/01/08 04:53:25;;;;;;;11.45;5.50;;;4.60;99.90;;;;;;4972101;28;20034;-73
2023/01/08 04:55:51;;;;;;;10.32;4.43;;;4.50;99.90;;;;;;4973033;28;20030;-73
2023/01/08 04:58:17;;;;;;;10.48;4.78;;;4.60;99.90;;;;;;4992315;28;20030;-74
2023/01/08 05:00:43;;;;;;;7.90;4.18;;;;;;;;;;4991896;28;20034;-73
2023/01/08 05:03:09;;;;;;;8.00;3.65;;;3.60;99.90;;;;;;4990878;28;20057;-73
2023/01/08 05:05:35;;;;;;;8.30;4.35;;;;;;;;;;4990516;28;20022;-73
2023/01/08 05:08:01;;;;;;;4.93;3.65;;;;;;;;;;4991746;28;20035;-73
2023/01/08 05:10:27;;;;;;;8.65;4.30;;;5.30;99.90;;;;;;4991811;28;20030;-74
2023/01/08 05:12:59;;;;;;;4.45;3.70;;;5.20;99.90;;;;;;4991698;28;20030;-74
2023/01/08 05:15:25;;;;;;;8.38;4.18;;;4.50;99.90;;;;;;4993509;28;20030;-74
2023/01/08 05:18:02;;;;;;;6.63;5.05;;;4.60;99.90;;;;;;4992992;28;20035;-74
2023/01/08 05:20:29;;;;;;;11.55;5.93;;;;;;;;;;4993349;28;20105;-74
2023/01/08 05:22:57;;;;;;;6.32;4.05;;;;;;;;;;4991047;28;20113;-74
2023/01/08 05:25:23;;;;;;;4.15;3.28;;;4.60;99.90;;;;;;4990473;28;20046;-74
2023/01/08 05:27:49;;;;;;;6.75;4.28;;;4.60;99.90;;;;;;4990418;28;20026;-74
2023/01/08 05:30:15;;;;;;;5.47;4.35;;;;;;;;;;4990443;28;20026;-74
2023/01/08 05:32:41;;;;;;;14.15;4.70;;;4.70;99.90;;;;;;4990701;28;20494;-74
2023/01/08 05:35:07;;;;;;;5.15;3.75;;;;;;;;;;4990497;28;20040;-74
2023/01/08 05:37:34;;;;;;;8.02;5.22;;;4.60;99.90;;;;;;4991047;28;20096;-74
2023/01/08 05:40:00;;;;;;;6.35;4.18;;;5.30;99.90;;;;;;4991008;28;20045;-75
2023/01/08 05:42:26;;;;;;;5.45;3.92;;;;;;;;;;4989959;28;20026;-74
2023/01/08 05:44:52;;;;;;;8.02;4.90;;;;;;;;;;4989552;28;20364;-74
2023/01/08 05:47:18;;;;;;;12.60;4.35;;;;;;;;;;4991268;28;20054;-75
2023/01/08 05:49:43;;;;;;;7.30;4.60;;;4.70;99.90;;;;;;4990950;28;20394;-75
2023/01/08 05:52:09;;;;;;;7.75;4.85;;;4.70;99.90;;;;;;4989195;28;20069;-75
2023/01/08 05:54:35;;;;;;;7.18;4.90;;;;;;;;;;4990765;28;20399;-75
2023/01/08 05:57:01;;;;;;;8.40;4.68;;;4.70;99.90;;;;;;4990354;28;20476;-74
2023/01/08 05:59:26;;;;;;;5.95;4.05;;;4.70;99.90;;;;;;4990471;28;20034;-74
2023/01/08 06:01:52;;;;;;;3.88;3.33;;;4.60;99.90;;;;;;4990424;28;20109;-75
2023/01/08 06:04:17;;;;;;;10.23;5.80;;;5.00;99.90;;;;;;4988975;28;20483;-74
2023/01/08 06:06:43;;;;;;;5.35;3.63;;;4.60;99.90;;;;;;4990670;28;20026;-75
2023/01/08 06:09:09;;;;;;;6.93;4.57;;;4.60;99.90;;;;;;4989195;28;20022;-75
2023/01/08 06:11:34;;;;;;;11.13;4.82;;;4.60;99.90;;;;;;4990122;28;20030;-75
2023/01/08 06:14:00;;;;;;;8.30;5.72;;;4.70;99.90;;;;;;4988882;28;20034;-74
2023/01/08 06:16:25;;;;;;;9.00;5.82;;;4.70;99.90;;;;;;4974434;28;20027;-74
2023/01/08 06:18:51;;;;;;;9.30;4.45;;;4.60;99.90;;;;;;4970995;28;20077;-74
2023/01/08 06:21:17;;;;;;;9.05;4.75;;;4.60;99.90;;;;;;4971494;28;20210;-74
2023/01/08 06:23:42;;;;;;;5.93;4.55;;;4.60;99.90;;;;;;4972768;28;20038;-74
2023/01/08 06:26:08;;;;;;;6.57;5.32;;;4.60;99.90;;;;;;4971134;28;20031;-74
2023/01/08 06:28:35;;;;;;;6.50;4.07;;;4.60;99.90;;;;;;4970957;28;20388;-74
2023/01/08 06:31:01;;;;;;;9.30;5.32;;;4.70;99.90;;;;;;4969431;28;20082;-74
2023/01/08 06:33:26;;;;;;;12.10;6.05;;;4.70;99.90;;;;;;4971193;28;20031;-74
2023/01/08 06:35:52;;;;;;;10.48;5.72;;;4.70;99.90;;;;;;4970794;28;20030;-74
2023/01/08 06:38:18;;;;;;;7.80;5.07;;;;;;;;;;4972030;28;20167;-74
2023/01/08 06:40:45;;;;;;;8.52;5.45;;;4.50;99.90;;;;;;4974352;28;20035;-74
2023/01/08 06:43:10;;;;;;;6.00;4.70;;;4.70;99.90;;;;;;4972999;28;20023;-75
2023/01/08 06:45:36;;;;;;;7.85;4.95;;;;;;;;;;4973909;28;20089;-74
2023/01/08 06:48:04;;;;;;;5.80;4.38;;;4.70;99.90;;;;;;4972821;28;20117;-73
2023/01/08 06:50:31;;;;;;;7.10;4.80;;;4.50;99.90;;;;;;4972961;28;20049;-75
2023/01/08 06:52:57;;;;;;;6.90;3.90;;;4.60;99.90;;;;;;4974125;28;20027;-74
2023/01/08 06:55:23;;;;;;;7.10;4.80;;;4.50;99.90;;;;;;4972638;28;20419;-74
2023/01/08 06:57:56;;;;;;;9.13;5.43;;;4.60;99.90;;;;;;4974102;28;20033;-73
2023/01/08 07:00:24;;;;;;;9.77;5.40;;;4.70;99.90;;;;;;4973681;28;20117;-73
2023/01/08 07:02:50;;;;;;;7.20;4.78;;;5.20;99.90;;;;;;4974182;28;20055;-73
2023/01/08 07:05:16;;;;;;;6.78;4.47;;;;;;;;;;4973924;28;20035;-74
2023/01/08 07:07:42;;;;;;;8.82;5.65;;;4.70;99.90;;;;;;4973843;28;20074;-74
2023/01/08 07:10:08;;;;;;;8.10;5.43;;;;;;;;;;4973883;28;20035;-74
2023/01/08 07:12:34;;;;;;;8.48;5.90;;;4.70;99.90;;;;;;4972418;28;20245;-74
2023/01/08 07:15:01;;;;;;;7.15;4.82;;;4.80;99.90;;;;;;4973755;28;20373;-74
2023/01/08 07:17:26;;;;;;;11.15;5.22;;;4.80;99.90;;;;;;4973950;28;20018;-74
2023/01/08 07:19:52;;;;;;;7.40;4.85;;;4.80;99.90;;;;;;4972350;28;20053;-74
2023/01/08 07:22:19;;;;;;;8.55;5.38;;;4.80;99.90;;;;;;4972522;28;20034;-74
2023/01/08 07:24:44;;;;;;;7.30;4.40;;;4.90;99.90;;;;;;4973647;28;20046;-75
2023/01/08 07:27:10;;;;;;;6.35;4.80;;;4.90;99.90;;;;;;4973838;28;20027;-74
2023/01/08 07:29:35;;;;;;;8.07;5.32;;;4.90;99.90;;;;;;4973373;28;20484;-73
2023/01/08 07:32:02;;;;;;;11.13;4.90;;;;;;;;;;4971892;28;20057;-74
2023/01/08 07:34:28;;;;;;;10.77;7.75;;;;;;;;;;4973331;28;20472;-74
2023/01/08 07:36:53;;;;;;;10.05;5.97;;;4.90;99.90;;;;;;4971904;28;20034;-74
2023/01/08 07:39:19;;;;;;;8.70;5.70;;;4.90;99.90;;;;;;4972271;28;20085;-74
2023/01/08 07:41:45;;;;;;;7.97;5.30;;;5.00;99.90;;;;;;4973177;28;20134;-73
2023/01/08 07:44:11;;;;;;;8.77;5.00;;;4.90;99.90;;;;;;4973343;28;20038;-74
2023/01/08 07:46:37;;;;;;;8.73;4.47;;;4.90;99.90;;;;;;4971755;28;20404;-74
2023/01/08 07:49:03;;;;;;;11.88;6.75;;;4.90;99.90;;;;;;4973224;28;20478;-74
2023/01/08 07:51:29;;;;;;;11.43;8.20;;;4.90;99.90;;;;;;4973140;28;20015;-74
2023/01/08 07:53:55;;;;;;;12.45;6.40;;;5.00;99.90;;;;;;4973152;28;20035;-73
2023/01/08 07:56:22;;;;;;;8.63;5.57;;;5.60;99.90;;;;;;4972909;28;20019;-74
2023/01/08 07:58:47;;;;;;;12.60;6.55;;;5.40;99.90;;;;;;4973188;28;20027;-74
2023/01/08 08:01:14;;;;;;;11.32;7.03;;;5.20;99.90;;;;;;4971371;28;20054;-73
2023/01/08 08:03:40;;;;;;;18.25;9.10;;;5.20;99.90;;;;;;4972832;28;20026;-74
2023/01/08 08:06:06;;;;;;;19.73;10.02;;;5.20;99.90;;;;;;4972745;28;20030;-74
2023/01/08 08:08:32;;;;;;;14.20;6.97;;;5.20;99.90;;;;;;4972560;28;20023;-73
2023/01/08 08:10:57;;;;;;;16.10;9.00;;;5.20;99.90;;;;;;4972449;28;20166;-74
2023/01/08 08:13:23;;;;;;;9.27;5.05;;;5.20;99.90;;;;;;4973469;28;20062;-73
2023/01/08 08:15:48;;;;;;;9.98;6.07;;;5.30;99.90;;;;;;4971804;28;20026;-73
2023/01/08 08:18:14;;;;;;;8.38;4.95;;;5.70;99.90;;;;;;4972944;28;20058;-74
2023/01/08 08:20:40;;;;;;;7.88;4.75;;;5.30;99.90;;;;;;4972893;28;20579;-73
2023/01/08 08:23:13;;;;;;;9.75;7.35;;;5.30;99.90;;;;;;4971806;28;20023;-74
2023/01/08 08:25:40;;;;;;;5.85;3.50;;;5.50;99.90;;;;;;4972372;28;20053;-74
2023/01/08 08:28:06;;;;;;;6.72;4.47;;;5.50;99.90;;;;;;4974188;28;20030;-74
2023/01/08 08:30:34;;;;;;;3.83;3.22;;;5.70;99.90;;;;;;4972725;28;20066;-73
2023/01/08 08:33:02;;;;;;;2.83;1.50;;;6.00;99.90;;;;;;4986546;28;20105;-73
2023/01/08 08:35:29;;;;;;;1.23;1.13;;;6.80;99.90;;;;;;4989550;28;20039;-73
2023/01/08 08:37:56;;;;;;;1.10;0.88;;;6.70;99.90;;;;;;4991428;28;20046;-73
2023/01/08 08:40:22;;;;;;;0.90;0.88;;;6.70;99.90;;;;;;4990949;28;20031;-73
2023/01/08 08:42:48;;;;;;;1.38;0.70;;;7.00;99.90;;;;;;4991175;28;20483;-73
2023/01/08 08:45:13;;;;;;;0.93;0.73;;;7.10;99.90;;;;;;5005885;28;20122;-74
2023/01/08 08:47:39;;;;;;;2.45;0.40;;;;;;;;;;4991078;28;20506;-74
2023/01/08 08:50:06;;;;;;;1.85;0.60;;;;;;;;;;4990427;28;20084;-74
2023/01/08 08:52:33;;;;;;;0.70;0.70;;;7.40;99.90;;;;;;5006213;28;20022;-74
2023/01/08 08:54:59;;;;;;;0.98;0.60;;;7.20;99.90;;;;;;4979887;28;20472;-74
2023/01/08 08:57:25;;;;;;;0.60;0.60;;;7.30;99.90;;;;;;4975904;28;20416;-74
2023/01/08 08:59:51;;;;;;;0.80;0.80;;;7.40;99.90;;;;;;4981453;28;20035;-74
2023/01/08 09:02:17;;;;;;;0.75;0.50;;;;;;;;;;4980754;28;20039;-75
2023/01/08 09:04:43;;;;;;;0.40;0.40;;;;;;;;;;4996214;28;20019;-75
2023/01/08 09:07:09;;;;;;;0.60;0.60;;;7.20;99.90;;;;;;4981429;28;20027;-74
2023/01/08 09:09:35;;;;;;;0.60;0.60;;;;;;;;;;4981145;28;20022;-75
2023/01/08 09:12:01;;;;;;;0.30;0.30;;;7.40;99.90;;;;;;4981011;28;20070;-74
2023/01/08 09:14:27;;;;;;;7.88;0.60;;;;;;;;;;4995721;28;20242;-74
2023/01/08 09:16:53;;;;;;;0.52;0.45;;;;;;;;;;4980450;28;20199;-74
2023/01/08 09:19:18;;;;;;;0.30;0.30;;;7.40;99.90;;;;;;4981316;28;20062;-74
2023/01/08 09:21:44;;;;;;;0.70;0.70;;;7.60;99.90;;;;;;4980973;28;20035;-74
2023/01/08 09:24:10;;;;;;;0.38;0.38;;;7.60;99.90;;;;;;4980564;28;20054;-74
2023/01/08 09:26:36;;;;;;;0.40;0.28;;;;;;;;;;4980819;28;20026;-74
2023/01/08 09:29:02;;;;;;;0.20;0.20;;;7.60;99.90;;;;;;4980668;28;20334;-74
2023/01/08 09:31:28;;;;;;;0.47;0.40;;;;;;;;;;4980404;28;20082;-74
2023/01/08 09:33:54;;;;;;;0.30;0.30;;;;;;;;;;4995591;28;20219;-74
2023/01/08 09:36:20;;;;;;;0.28;0.28;;;7.50;99.90;;;;;;4981292;28;20229;-74
2023/01/08 09:38:46;;;;;;;2.30;0.47;;;;;;;;;;4980793;28;20226;-75
2023/01/08 09:41:27;;;;;;;1.50;0.70;;;7.70;99.90;;;;;;4980816;28;20045;-74
2023/01/08 09:43:55;;;;;;;0.20;0.20;;;7.70;99.90;;;;;;4981355;28;20357;-75
2023/01/08 09:46:25;;;;;;;1.13;1.13;;;7.70;99.90;;;;;;4980932;28;20031;-75
2023/01/08 09:48:52;;;;;;;0.50;0.50;;;7.60;99.90;;;;;;4980575;28;20097;-74
2023/01/08 09:51:20;;;;;;;0.40;0.32;;;7.70;99.90;;;;;;4980228;28;20038;-74
2023/01/08 09:53:53;;;;;;;0.40;0.40;;;7.80;99.90;;;;;;4979961;28;20122;-75
2023/01/08 09:56:19;;;;;;;0.40;0.40;;;7.80;99.90;;;;;;4982700;28;20035;-75
2023/01/08 09:58:51;;;;;;;1.67;0.90;;;8.00;99.90;;;;;;4979854;28;20027;-74
2023/01/08 10:01:21;;;;;;;1.00;0.75;;;8.20;99.90;;;;;;4998856;28;20029;-75
2023/01/08 10:04:10;;;;;;;1.20;1.10;;;8.20;99.90;;;;;;5001092;28;20081;-75
2023/01/08 10:06:36;;;;;;;0.75;0.75;;;;;;;;;;5001992;28;20315;-74
2023/01/08 10:09:02;;;;;;;0.82;0.80;;;7.20;99.90;;;;;;4988707;28;20181;-74
2023/01/08 10:11:37;;;;;;;1.48;1.38;;;8.20;99.90;;;;;;4988941;28;20026;-75
2023/01/08 10:14:05;;;;;;;0.85;0.82;;;8.30;99.90;;;;;;4992007;28;20052;-75
2023/01/08 10:16:35;;;;;;;1.58;1.40;;;8.20;99.90;;;;;;4995662;28;20065;-74
2023/01/08 10:19:01;;;;;;;1.73;0.93;;;8.10;99.90;;;;;;4990440;28;20026;-74
2023/01/08 10:21:36;;;;;;;3.38;1.52;;;8.10;99.90;;;;;;4992841;28;20030;-74
2023/01/08 10:24:02;;;;;;;4.72;2.13;;;;;;;;;;4996888;28;20330;-74
2023/01/08 10:26:36;;;;;;;1.45;1.35;;;7.90;99.90;;;;;;5003391;28;20030;-75
2023/01/08 10:29:15;;;;;;;1.63;1.30;;;8.00;99.90;;;;;;4992132;28;20037;-75
2023/01/08 10:31:47;;;;;;;2.38;1.85;;;8.10;99.90;;;;;;4993248;28;20029;-75
2023/01/08 10:34:40;;;;;;;3.95;1.55;;;8.10;99.90;;;;;;4993403;28;20125;-74
2023/01/08 10:37:20;;;;;;;1.88;1.73;;;8.20;99.90;;;;;;4994728;28;20369;-75
2023/01/08 10:39:47;;;;;;;1.73;1.63;;;8.20;99.90;;;;;;5001788;28;20062;-74
2023/01/08 10:42:16;;;;;;;1.90;1.58;;;8.00;99.90;;;;;;4995550;28;20022;-74
2023/01/08 10:45:17;;;;;;;3.38;2.15;;;7.90;99.90;;;;;;5002341;28;20053;-76
2023/01/08 10:47:46;;;;;;;4.75;2.45;;;8.00;99.90;;;;;;4982595;28;20452;-76
2023/01/08 10:50:22;;;;;;;4.13;2.67;;;8.00;99.90;;;;;;4994277;28;20026;-75
2023/01/08 10:52:54;;;;;;;4.75;2.95;;;7.90;99.90;;;;;;4996364;28;20033;-75
2023/01/08 10:55:28;;;;;;;6.22;2.80;;;8.50;99.90;;;;;;4991424;28;20026;-74
2023/01/08 10:58:12;;;;;;;4.88;3.83;;;8.30;99.90;;;;;;4992267;28;20113;-74
2023/01/08 11:00:39;;;;;;;5.13;3.35;;;;;;;;;;4989713;28;20137;-75
2023/01/08 11:03:19;;;;;;;4.32;2.58;;;8.40;99.90;;;;;;4989745;28;20045;-75
2023/01/08 11:05:46;;;;;;;4.05;3.45;;;;;;;;;;4989491;28;20030;-75
2023/01/08 11:08:20;;;;;;;4.00;1.80;;;8.10;99.90;;;;;;4989757;28;20657;-75
2023/01/08 11:11:00;;;;;;;4.40;3.03;;;8.10;99.90;;;;;;4989522;28;20491;-74
2023/01/08 11:13:27;;;;;;;4.90;3.55;;;8.10;99.90;;;;;;4989605;28;20041;-77
2023/01/08 11:16:04;;;;;;;3.63;2.50;;;7.90;99.90;;;;;;4990480;28;20125;-76
2023/01/08 11:18:30;;;;;;;3.72;2.60;;;8.00;99.90;;;;;;4989665;28;20018;-76
2023/01/08 11:21:17;;;;;;;4.32;2.63;;;7.80;99.90;;;;;;4990061;28;20060;-76
2023/01/08 11:23:43;;;;;;;5.20;2.72;;;7.80;99.90;;;;;;4989569;28;20117;-76
2023/01/08 11:26:18;;;;;;;4.95;3.50;;;7.80;99.90;;;;;;4989678;28;20172;-74
2023/01/08 11:28:55;;;;;;;2.72;1.80;;;7.80;99.90;;;;;;5000342;28;20088;-74
2023/01/08 11:31:38;;;;;;;3.65;2.72;;;7.80;99.90;;;;;;4990157;28;20487;-74
2023/01/08 11:34:19;;;;;;;4.65;2.25;;;7.90;99.90;;;;;;4989550;28;20574;-74
2023/01/08 11:37:03;;;;;;;2.45;2.00;;;7.80;99.90;;;;;;4989133;28;20058;-74
2023/01/08 11:39:29;;;;;;;3.85;2.17;;;;;;;;;;4986696;28;20045;-74
2023/01/08 11:42:14;;;;;;;4.70;2.47;;;7.60;99.90;;;;;;4986528;28;20043;-74
2023/01/08 11:45:05;;;;;;;2.28;1.92;;;7.50;99.90;;;;;;5002123;28;20360;-75
2023/01/08 11:47:40;;;;;;;3.35;2.33;;;7.70;99.90;;;;;;4977363;28;20512;-74
2023/01/08 11:50:31;;;;;;;2.78;2.40;;;7.50;99.90;;;;;;4988464;28;20542;-75
2023/01/08 11:53:35;;;;;;;3.13;2.78;;;7.40;99.90;;;;;;4988642;28;20172;-75
2023/01/08 11:56:28;;;;;;;3.33;2.53;;;7.60;99.90;;;;;;4986157;28;20053;-75
2023/01/08 11:59:07;;;;;;;11.13;3.75;;;7.60;99.90;;;;;;4988762;28;20018;-76
2023/01/08 12:01:48;;;;;;;4.97;4.47;;;7.60;99.90;;;;;;4996893;28;20414;-75
2023/01/08 12:04:34;;;;;;;9.30;6.55;;;7.90;99.90;;;;;;5003011;28;20395;-75
2023/01/08 12:07:06;;;;;;;6.38;4.28;;;7.60;99.90;;;;;;4986566;28;20061;-74
2023/01/08 12:09:39;;;;;;;8.43;4.20;;;7.50;99.90;;;;;;4988510;28;20030;-75
2023/01/08 12:12:25;;;;;;;4.45;3.83;;;7.60;99.90;;;;;;4988545;28;20026;-74
2023/01/08 12:15:19;;;;;;;3.92;2.70;;;7.90;99.90;;;;;;4987789;28;20047;-74
2023/01/08 12:18:23;;;;;;;9.10;3.85;;;7.70;99.90;;;;;;4977662;28;20053;-74
2023/01/08 12:21:04;;;;;;;4.35;3.03;;;7.70;99.90;;;;;;4948150;29;20039;-75
2023/01/08 12:23:40;;;;;;;6.72;3.55;;;8.10;99.90;;;;;;4972334;28;20476;-74
2023/01/08 12:26:17;;;;;;;7.75;3.53;;;;;;;;;;4968645;28;20039;-74
2023/01/08 12:28:48;;;;;;;4.95;3.05;;;7.90;99.90;;;;;;4982671;28;20027;-75
2023/01/08 12:31:49;;;;;;;7.10;3.15;;;8.10;99.90;;;;;;4983146;28;20559;-75
2023/01/08 12:34:15;;;;;;;;;;;;;;;;;;4969299;28;20027;-74
2023/01/08 12:36:43;;;;;;;3.65;3.13;;;;;;;;;;4976963;28;19912;-75
2023/01/08 12:39:14;;;;;;;5.88;3.83;;;8.00;99.90;;;;;;4988143;28;20030;-75
2023/01/08 12:41:44;;;;;;;4.20;3.35;;;8.10;99.90;;;;;;5002801;28;20486;-74
2023/01/08 12:44:10;;;;;;;;;;;8.10;99.90;;;;;;4988225;28;20467;-75
2023/01/08 12:46:46;;;;;;;6.97;3.70;;;8.10;99.90;;;;;;4985792;28;19909;-74
2023/01/08 12:49:24;;;;;;;6.57;3.28;;;8.10;99.90;;;;;;4982845;28;20034;-74
2023/01/08 12:52:27;;;;;;;5.15;3.40;;;7.90;99.90;;;;;;4984574;28;20029;-74
2023/01/08 12:55:15;;;;;;;5.72;3.92;;;8.00;99.90;;;;;;4992413;28;20278;-75
2023/01/08 12:57:43;;;;;;;4.95;3.10;;;;;;;;;;4984579;28;20362;-75
2023/01/08 13:00:35;;;;;;;6.07;3.83;;;7.90;99.90;;;;;;4986779;28;20038;-74
2023/01/08 13:03:03;;;;;;;4.60;3.55;;;7.90;99.90;;;;;;4986509;28;20233;-75
2023/01/08 13:05:36;;;;;;;3.85;2.90;;;8.10;99.90;;;;;;4987064;28;20399;-74
2023/01/08 13:08:20;;;;;;;7.18;4.30;;;7.90;99.90;;;;;;4983836;28;20073;-76
2023/01/08 13:10:53;;;;;;;5.57;4.40;;;7.90;99.90;;;;;;4993580;28;20106;-75
2023/01/08 13:13:30;;;;;;;5.50;4.05;;;8.10;99.90;;;;;;4989120;28;20187;-74
2023/01/08 13:16:16;;;;;;;10.30;5.68;;;7.80;99.90;;;;;;4987105;28;20030;-75
2023/01/08 13:18:57;;;;;;;6.30;3.55;;;8.00;99.90;;;;;;4984447;28;20030;-75
2023/01/08 13:21:31;;;;;;;4.18;2.97;;;7.80;99.90;;;;;;4984585;28;20383;-74
2023/01/08 13:24:22;;;;;;;5.32;3.60;;;7.90;99.90;;;;;;4985738;28;20050;-74
2023/01/08 13:26:48;;;;;;;4.68;3.83;;;7.80;99.90;;;;;;4985932;28;20046;-74
2023/01/08 13:29:32;;;;;;;6.50;4.00;;;7.70;99.90;;;;;;4987517;28;20045;-74
2023/01/08 13:31:58;;;;;;;4.78;4.00;;;7.60;99.90;;;;;;4987340;28;20026;-75